createdAt,value
2022-10-31T00:02:30.505Z,9.88
2022-10-31T00:07:53.129Z,9.85
2022-10-31T00:13:16.283Z,9.85
2022-10-31T00:18:38.464Z,9.85
2022-10-31T00:24:01.674Z,9.75
2022-10-31T00:29:24.180Z,9.65
2022-10-31T00:34:46.312Z,9.55
2022-10-31T00:40:08.580Z,9.50
2022-10-31T00:45:31.003Z,9.40
2022-10-31T00:50:53.520Z,9.39
2022-10-31T00:56:15.742Z,9.33
2022-10-31T01:01:38.015Z,9.26
2022-10-31T01:07:00.889Z,9.28
2022-10-31T01:12:23.199Z,9.23
2022-10-31T01:17:45.723Z,9.23
2022-10-31T01:23:07.887Z,9.17
2022-10-31T01:28:30.038Z,9.10
2022-10-31T01:33:52.858Z,9.05
2022-10-31T01:39:20.725Z,9.01
2022-10-31T01:44:47.768Z,9.02
2022-10-31T01:50:15.235Z,8.98
2022-10-31T01:55:55.886Z,8.99
2022-10-31T02:01:19.353Z,8.94
2022-10-31T02:06:49.661Z,8.94
2022-10-31T02:12:13.355Z,8.96
2022-10-31T02:17:36.361Z,8.96
2022-10-31T02:23:30.028Z,8.97
2022-10-31T02:29:19.413Z,9.02
2022-10-31T02:35:02.069Z,8.99
2022-10-31T02:40:34.615Z,9.00
2022-10-31T02:46:20.352Z,8.98
2022-10-31T02:51:43.021Z,8.99
2022-10-31T02:57:12.295Z,9.02
2022-10-31T03:03:07.453Z,9.00
2022-10-31T03:14:16.917Z,9.14
2022-10-31T03:19:54.873Z,9.00
2022-10-31T03:25:19.106Z,9.03
2022-10-31T03:30:41.452Z,8.99
2022-10-31T03:36:07.349Z,9.00
2022-10-31T03:41:36.186Z,9.08
2022-10-31T03:46:59.634Z,9.09
2022-10-31T03:52:50.972Z,9.10
2022-10-31T03:58:33.832Z,9.07
2022-10-31T04:03:58.203Z,9.02
2022-10-31T04:09:23.290Z,9.02
2022-10-31T04:14:49.517Z,8.98
2022-10-31T04:20:15.638Z,9.02
2022-10-31T04:25:38.742Z,8.98
2022-10-31T04:31:01.032Z,8.89
2022-10-31T04:36:23.327Z,8.86
2022-10-31T04:41:45.459Z,8.82
2022-10-31T04:47:07.974Z,8.75
2022-10-31T04:52:30.571Z,8.78
2022-10-31T04:57:56.565Z,8.76
2022-10-31T05:03:18.887Z,8.79
2022-10-31T05:08:41.193Z,8.78
2022-10-31T05:14:03.386Z,8.76
2022-10-31T05:19:26.256Z,8.72
2022-10-31T05:24:48.394Z,8.67
2022-10-31T05:30:10.828Z,8.69
2022-10-31T05:35:39.014Z,8.68
2022-10-31T05:41:04.226Z,8.68
2022-10-31T05:46:26.430Z,8.70
2022-10-31T05:51:48.631Z,8.69
2022-10-31T05:57:10.854Z,8.65
2022-10-31T06:02:35.682Z,8.64
2022-10-31T06:07:58.365Z,8.68
2022-10-31T06:13:21.103Z,8.70
2022-10-31T06:18:43.727Z,8.71
2022-10-31T06:24:05.930Z,8.71
2022-10-31T06:29:28.077Z,8.64
2022-10-31T06:34:50.384Z,8.65
2022-10-31T06:40:12.884Z,8.67
2022-10-31T06:45:35.036Z,8.78
2022-10-31T06:50:59.730Z,8.77
2022-10-31T06:56:22.555Z,8.74
2022-10-31T07:01:45.461Z,8.72
2022-10-31T07:07:09.368Z,8.73
2022-10-31T07:12:31.514Z,8.81
2022-10-31T07:17:53.657Z,8.76
2022-10-31T07:23:17.410Z,8.93
2022-10-31T07:28:40.346Z,8.87
2022-10-31T07:34:02.523Z,8.94
2022-10-31T07:39:25.081Z,8.95
2022-10-31T07:44:47.237Z,8.90
2022-10-31T07:50:09.808Z,8.90
2022-10-31T07:55:33.089Z,8.92
2022-10-31T08:00:57.619Z,8.99
2022-10-31T08:06:20.441Z,9.05
2022-10-31T08:11:42.597Z,9.05
2022-10-31T08:17:06.117Z,9.06
2022-10-31T08:22:28.453Z,8.99
2022-10-31T08:27:51.657Z,8.85
2022-10-31T08:33:25.808Z,8.97
2022-10-31T08:38:48.395Z,8.95
2022-10-31T08:44:10.625Z,9.04
2022-10-31T08:49:32.802Z,9.22
2022-10-31T08:54:54.968Z,9.15
2022-10-31T09:00:18.163Z,9.22
2022-10-31T09:05:41.119Z,9.35
2022-10-31T09:11:04.133Z,9.18
2022-10-31T09:16:26.447Z,9.31
2022-10-31T09:21:49.122Z,9.44
2022-10-31T09:27:12.292Z,9.38
2022-10-31T09:32:34.430Z,9.42
2022-10-31T09:38:06.570Z,9.46
2022-10-31T09:44:05.489Z,9.47
2022-10-31T09:49:32.675Z,9.53
2022-10-31T09:55:14.762Z,9.66
2022-10-31T10:00:38.067Z,9.83
2022-10-31T10:06:30.988Z,9.79
2022-10-31T10:12:16.355Z,9.79
2022-10-31T10:17:52.466Z,9.89
2022-10-31T10:23:40.161Z,9.90
2022-10-31T10:29:07.665Z,9.96
2022-10-31T10:34:43.653Z,10.07
2022-10-31T10:40:10.678Z,10.09
2022-10-31T10:45:52.133Z,10.04
2022-10-31T10:51:25.744Z,10.03
2022-10-31T10:57:09.969Z,10.11
2022-10-31T11:02:48.861Z,9.98
2022-10-31T11:08:11.292Z,10.10
2022-10-31T11:13:36.912Z,10.21
2022-10-31T11:19:01.723Z,10.13
2022-10-31T11:24:31.080Z,10.13
2022-10-31T11:29:58.307Z,10.36
2022-10-31T11:35:20.848Z,10.31
2022-10-31T11:40:44.834Z,10.31
2022-10-31T11:46:07.884Z,10.39
2022-10-31T11:51:39.403Z,10.24
2022-10-31T11:57:02.019Z,10.32
2022-10-31T12:02:30.487Z,10.32
2022-10-31T12:07:52.709Z,10.44
2022-10-31T12:13:25.667Z,10.42
2022-10-31T12:18:58.253Z,10.44
2022-10-31T12:24:34.398Z,10.41
2022-10-31T12:30:18.016Z,10.51
2022-10-31T12:35:57.353Z,10.42
2022-10-31T12:41:41.364Z,10.47
2022-10-31T12:47:17.091Z,10.56
2022-10-31T12:58:44.168Z,10.57
2022-10-31T13:04:45.850Z,10.50
2022-10-31T13:10:30.939Z,10.50
2022-10-31T13:16:28.170Z,10.67
2022-10-31T13:22:11.844Z,10.60
2022-10-31T13:27:51.044Z,10.57
2022-10-31T13:33:23.605Z,10.57
2022-10-31T13:39:13.943Z,10.66
2022-10-31T13:44:40.342Z,10.60
2022-10-31T13:50:20.965Z,10.54
2022-10-31T13:56:11.464Z,10.54
2022-10-31T14:01:39.122Z,10.62
2022-10-31T14:07:27.748Z,10.63
2022-10-31T14:13:12.450Z,10.72
2022-10-31T14:18:56.153Z,10.65
2022-10-31T14:24:24.578Z,10.57
2022-10-31T14:29:51.481Z,10.55
2022-10-31T14:35:21.440Z,10.60
2022-10-31T14:41:11.516Z,10.54
2022-10-31T14:47:14.368Z,10.54
2022-10-31T14:52:38.266Z,10.52
2022-10-31T14:58:11.603Z,10.56
2022-10-31T15:04:21.913Z,10.53
2022-10-31T15:09:32.380Z,10.56
2022-10-31T15:14:56.380Z,10.51
2022-10-31T15:20:20.052Z,10.48
2022-10-31T15:25:45.874Z,10.49
2022-10-31T15:31:15.663Z,10.48
2022-10-31T15:36:39.068Z,10.47
2022-10-31T15:42:11.150Z,10.47
2022-10-31T15:47:39.200Z,10.48
2022-10-31T15:53:03.813Z,10.49
2022-10-31T15:58:34.821Z,10.50
2022-10-31T16:04:04.563Z,10.51
2022-10-31T16:09:40.524Z,10.52
2022-10-31T16:15:05.164Z,10.54
2022-10-31T16:20:33.387Z,10.56
2022-10-31T16:25:57.145Z,10.58
2022-10-31T16:31:35.382Z,10.58
2022-10-31T16:36:57.808Z,10.60
2022-10-31T16:42:21.576Z,10.60
2022-10-31T16:47:43.873Z,10.59
2022-10-31T16:53:13.737Z,10.58
2022-10-31T16:58:39.159Z,10.57
2022-10-31T17:04:01.300Z,10.56
2022-10-31T17:09:23.577Z,10.55
2022-10-31T17:14:46.300Z,10.52
2022-10-31T17:20:08.445Z,10.51
2022-10-31T17:25:36.208Z,10.51
2022-10-31T17:31:02.147Z,10.53
2022-10-31T17:36:25.813Z,10.54
2022-10-31T17:41:48.447Z,10.51
2022-10-31T17:47:10.947Z,10.52
2022-10-31T17:52:33.178Z,10.50
2022-10-31T17:57:55.770Z,10.48
2022-10-31T18:03:17.949Z,10.46
2022-10-31T18:08:46.662Z,10.47
2022-10-31T18:14:16.466Z,10.49
2022-10-31T18:19:38.634Z,10.48
2022-10-31T18:25:02.281Z,10.48
2022-10-31T18:30:25.720Z,10.52
2022-10-31T18:35:48.872Z,10.55
2022-10-31T18:41:11.212Z,10.54
2022-10-31T18:46:34.644Z,10.50
2022-10-31T18:51:57.011Z,10.51
2022-10-31T18:57:19.941Z,10.53
2022-10-31T19:02:43.173Z,10.55
2022-10-31T19:08:05.328Z,10.53
2022-10-31T19:13:27.476Z,10.53
2022-10-31T19:18:51.056Z,10.49
2022-10-31T19:24:13.634Z,10.49
2022-10-31T19:29:36.200Z,10.50
2022-10-31T19:34:58.731Z,10.50
2022-10-31T19:40:22.031Z,10.50
2022-10-31T19:45:44.291Z,10.50
2022-10-31T19:51:07.670Z,10.53
2022-10-31T19:56:32.772Z,10.53
2022-10-31T20:01:55.815Z,10.53
2022-10-31T20:07:19.346Z,10.52
2022-10-31T20:12:41.544Z,10.56
2022-10-31T20:18:04.370Z,10.62
2022-10-31T20:23:26.859Z,10.66
2022-10-31T20:28:49.929Z,10.65
2022-10-31T20:34:12.969Z,10.63
2022-10-31T20:39:36.784Z,10.65
2022-10-31T20:45:02.519Z,10.64
2022-10-31T20:50:25.628Z,10.63
2022-10-31T20:55:47.800Z,10.65
2022-10-31T21:01:11.448Z,10.66
2022-10-31T21:06:35.469Z,10.67
2022-10-31T21:11:58.016Z,10.67
2022-10-31T21:17:21.298Z,10.65
2022-10-31T21:22:44.307Z,10.65
2022-10-31T21:28:06.454Z,10.65
2022-10-31T21:33:28.797Z,10.66
2022-10-31T21:38:51.617Z,10.66
2022-10-31T21:44:14.004Z,10.66
2022-10-31T21:49:36.144Z,10.67
2022-10-31T21:54:58.311Z,10.68
2022-10-31T22:00:21.674Z,10.71
2022-10-31T22:05:44.482Z,10.74
2022-10-31T22:11:11.357Z,10.72
2022-10-31T22:16:36.014Z,10.70
2022-10-31T22:22:00.409Z,10.71
2022-10-31T22:27:23.032Z,10.69
2022-10-31T22:32:45.184Z,10.69
2022-10-31T22:38:08.091Z,10.70
2022-10-31T22:43:31.035Z,10.72
2022-10-31T22:49:03.999Z,10.71
2022-10-31T22:54:28.689Z,10.69
2022-10-31T22:59:51.671Z,10.69
2022-10-31T23:05:14.041Z,10.71
2022-10-31T23:10:40.287Z,10.71
2022-10-31T23:16:02.879Z,10.70
2022-10-31T23:21:44.273Z,10.71
2022-10-31T23:27:11.397Z,10.68
2022-10-31T23:32:43.327Z,10.67
2022-10-31T23:38:05.857Z,10.70
2022-10-31T23:43:28.482Z,10.67
2022-10-31T23:48:51.081Z,10.67
2022-10-31T23:54:13.317Z,10.67
2022-10-31T23:59:35.469Z,10.66
